カラカス の空港の天気 - METARとTAF

シモン・ボリバー空港(バルガス) ( SVMI / CCS ) - ベネズエラ バルガス州、Maiquetia (カラカス近郊)
飛行場実況気象(Metar)
観測時間01/23 01:00 VET (01/23 05:00 UTC)
風向・風速静穏 0m/s
視程10km以上
天気現象
少しの雲 雲底高度 490m
気温24℃
湿度89%
気圧1011hPa
METARSVMI 230500Z 00000KT 9999 FEW016 24/22 Q1011
過去の天気等 Google飛行場航空写真 Wunderground天気予報

過去48時間のMETAR

飛行場予報(TAF)
発表時間: 1/22 12:00 VET (1/22 16:00 UTC)
予報対象時間: 22日14時 VET ~ 23日14時 VET
風向・風速不定 4m/s
視程10km以上
全天の4割程度の雲 雲底高度 490m
全天の4割程度の雲 雲底高度 3,050m
22日16時 VET ~ 22日22時 VET に一時的に
天気現象霧雨
全天の4割程度の雲 雲底高度 400m
全天の4割程度の雲 雲底高度 2,130m
TAF SVMI 221600Z 2218/2318 VRB08KT 9999 SCT016 SCT100 TX30/20Z TN24/11
TEMPO 2220/2302 DZ SCT013 SCT070